Tuktoyaktuk - southern half: Past 24 Hour Conditions

 

Norman Wells Airport

07:00 AM MST 26 November 2014
This table is a summary of hourly weather conditions for the past 24 hours.
Date / Time
(MST)
Wind(knots) Conditions Visibility(km) Pressure(kPa) Air tempC) Relative humidity(%) Dew pointC) Wind Chill
26 November 2014
7:00 WNW 10 gust 16 Light Snow 24 103.7 -19 74 -22 -28
6:00 WNW 9 Partly Cloudy 24 103.6 -19 75 -23 -29
5:00 WNW 9 gust 16 Light Snow 24 103.5 -19 74 -22 -28
4:00 WNW 11 gust 19 Light Snow 24 103.4 -18 72 -22 -28
3:00 WNW 12 gust 19 Light Snow 16 103.3 -18 73 -22 -29
2:00 WNW 12 gust 21 Light Snow 16 103.2 -18 74 -21 -28
1:00 WNW 14 gust 19 Light Snow 24 103.1 -19 77 -22 -30
0:00 W 17 gust 22 Light Snow 24 103.0 -19 78 -22 -32
25 November 2014
23:00 W 12 gust 17 Light Snow 24 102.9 -20 78 -23 -31
22:00 WNW 10 Mostly Cloudy 24 102.8 -20 80 -23 -31
21:00 N 1 Light Snow 24 102.7 -24 78 -26 -27
20:00 E 4 Light Snow 16 102.7 -24 78 -27 -30
19:00 calm Light Snow 16 102.6 -24 76 -27 *
18:00 W 2 Light Snow 10 102.5 -24 76 -27 -27
17:00 W 4 Light Snow 10 102.5 -24 76 -27 -31
16:00 WNW 2 Light Snow 5 102.5 -25 76 -28 -29
15:00 calm Ice Crystals 32 102.4 -25 76 -28 *
14:00 E 2 Ice Crystals 48 102.4 -25 76 -29 -28
13:00 N 1 Ice Crystals 48 102.3 -26 76 -29 -28
12:00 calm Ice Crystals 48 102.3 -29 75 -32 *
11:00 N 1 Ice Crystals 48 102.2 -31 74 -34 -35
10:00 NNW 2 Ice Crystals 48 102.2 -31 74 -34 -36
9:00 NW 2 Ice Crystals 48 102.1 -32 73 -35 -36
8:00 WNW 3 Ice Crystals 48 102.1 -30 76 -33 -35
7:00 NW 3 Clear 48 102.1 -32 73 -35 -39
 
Map of Arctic - Western Arctic marine weather areas Herschel Island Komakuk Beach Shingle Point Airport Aklavik Airport Cape Parry Airport Fort Good Hope Airport Inuvik Airport Keats Point Norman Wells Airport Paulatuk Airport Pelly Island Tuktoyaktuk Airport Kugluktuk Airport Gjoa Haven Airport Hat Island Kugaaruk Airport Shepherd Bay Airport CFS Alert Arctic Bay Cambridge Bay Airport Cape Peel West Eureka Airport Grise Fiord Airport Hall Beach Airport Igloolik Airport Isachsen Pond Inlet Airport Rea Point Repulse Bay Airport Resolute Airport Stefansson Island Taloyoak Airport Aulavik National Park Ulukhaktok Airport Sachs Harbour Airport Thomsen River Liverpool Bay Little Chicago Storm Hills Croker River Mould Bay Bathurst Inlet Fort Ross Gateshead Island Svartevaeg
Legend: buoyBuoy land stationLand Station » US Marine Weather